createdAt,value
2023-04-25T00:00:38.028Z,788.70
2023-04-25T00:01:38.068Z,765.90
2023-04-25T00:02:38.162Z,728.60
2023-04-25T00:03:38.220Z,729.20
2023-04-25T00:04:38.255Z,732.90
2023-04-25T00:05:38.254Z,710.20
2023-04-25T00:06:37.993Z,734.90
2023-04-25T00:07:37.959Z,737.70
2023-04-25T00:08:37.941Z,729.00
2023-04-25T00:09:37.909Z,754.10
2023-04-25T00:10:37.906Z,764.40
2023-04-25T00:11:37.928Z,783.70
2023-04-25T00:12:37.864Z,792.50
2023-04-25T00:13:37.882Z,804.70
2023-04-25T00:14:37.857Z,819.00
2023-04-25T00:15:37.847Z,836.60
2023-04-25T00:16:37.941Z,836.10
2023-04-25T00:17:37.885Z,860.10
2023-04-25T00:18:37.812Z,869.70
2023-04-25T00:19:37.808Z,878.30
2023-04-25T00:20:37.813Z,887.50
2023-04-25T00:21:37.817Z,896.30
2023-04-25T00:22:37.788Z,901.50
2023-04-25T00:23:37.751Z,899.70
2023-04-25T00:24:37.734Z,898.70
2023-04-25T00:25:37.743Z,917.80
2023-04-25T00:26:37.770Z,918.90
2023-04-25T00:27:37.712Z,911.10
2023-04-25T00:28:37.698Z,902.30
2023-04-25T00:29:37.696Z,932.10
2023-04-25T00:30:37.657Z,927.50
2023-04-25T00:31:37.796Z,926.60
2023-04-25T00:32:37.742Z,922.40
2023-04-25T00:33:37.643Z,937.70
2023-04-25T00:34:37.627Z,940.50
2023-04-25T00:35:37.617Z,936.20
2023-04-25T00:36:37.648Z,932.40
2023-04-25T00:37:37.612Z,925.20
2023-04-25T00:38:37.594Z,933.10
2023-04-25T00:39:37.577Z,963.10
2023-04-25T00:40:37.560Z,936.50
2023-04-25T00:41:37.580Z,922.70
2023-04-25T00:42:37.533Z,924.30
2023-04-25T00:43:37.520Z,917.40
2023-04-25T00:44:37.530Z,917.70
2023-04-25T00:45:37.512Z,917.60
2023-04-25T00:46:37.588Z,899.40
2023-04-25T00:47:37.522Z,916.10
2023-04-25T00:48:37.481Z,927.50
2023-04-25T00:49:37.480Z,895.50
2023-04-25T00:50:37.467Z,917.30
2023-04-25T00:51:37.482Z,899.40
2023-04-25T00:52:37.429Z,923.30
2023-04-25T00:53:37.435Z,934.40
2023-04-25T00:54:37.401Z,940.80
2023-04-25T00:55:37.410Z,941.80
2023-04-25T00:56:37.425Z,977.10
2023-04-25T00:57:37.379Z,958.60
2023-04-25T00:58:37.368Z,1015.30
2023-04-25T00:59:37.359Z,922.70
2023-04-25T01:00:37.373Z,953.10
2023-04-25T01:01:37.381Z,920.50
2023-04-25T01:02:37.457Z,985.70
2023-04-25T01:03:37.617Z,994.70
2023-04-25T01:04:37.301Z,1042.30
2023-04-25T01:05:37.300Z,1096.10
2023-04-25T01:06:37.274Z,1087.90
2023-04-25T01:07:37.306Z,1059.40
2023-04-25T01:08:37.250Z,1113.30
2023-04-25T01:09:37.245Z,1128.00
2023-04-25T01:10:37.239Z,1130.50
2023-04-25T01:11:37.201Z,1107.70
2023-04-25T01:12:37.248Z,1079.90
2023-04-25T01:13:37.192Z,1121.50
2023-04-25T01:14:37.172Z,1132.20
2023-04-25T01:15:37.206Z,1135.00
2023-04-25T01:16:37.199Z,1091.20
2023-04-25T01:17:37.202Z,1119.00
2023-04-25T01:18:37.149Z,1081.10
2023-04-25T01:19:37.126Z,1060.30
2023-04-25T01:20:37.106Z,1062.50
2023-04-25T01:21:37.109Z,1079.10
2023-04-25T01:22:37.128Z,1097.30
2023-04-25T01:23:37.097Z,1074.90
2023-04-25T01:24:37.074Z,1075.90
2023-04-25T01:25:37.078Z,1078.00
2023-04-25T01:26:37.052Z,1105.50
2023-04-25T01:27:37.073Z,1108.70
2023-04-25T01:28:37.007Z,1109.10
2023-04-25T01:29:37.022Z,1118.70
2023-04-25T01:30:36.981Z,1147.60
2023-04-25T01:31:37.007Z,1164.80
2023-04-25T01:32:37.047Z,1153.10
2023-04-25T01:33:36.974Z,1178.80
2023-04-25T01:34:36.964Z,1178.70
2023-04-25T01:35:36.951Z,1170.80
2023-04-25T01:36:36.929Z,1153.60
2023-04-25T01:37:36.967Z,1182.20
2023-04-25T01:38:36.901Z,1156.70
2023-04-25T01:39:36.890Z,1134.10
2023-04-25T01:40:36.898Z,1179.70
2023-04-25T01:41:36.866Z,1147.10
2023-04-25T01:42:36.900Z,1104.10
2023-04-25T01:43:36.850Z,1082.50
2023-04-25T01:44:36.841Z,1099.50
2023-04-25T01:45:36.840Z,1091.30
2023-04-25T01:46:36.988Z,1077.50
2023-04-25T01:47:36.920Z,1039.10
2023-04-25T01:48:36.802Z,1065.00
2023-04-25T01:49:36.817Z,1064.70
2023-04-25T01:50:36.770Z,1040.30
2023-04-25T01:51:36.792Z,988.20
2023-04-25T01:52:36.751Z,945.40
2023-04-25T01:53:36.759Z,940.10
2023-04-25T01:54:36.729Z,959.70
2023-04-25T01:55:36.711Z,942.30
2023-04-25T01:56:36.744Z,978.10
2023-04-25T01:57:36.712Z,994.50
2023-04-25T01:58:36.688Z,987.00
2023-04-25T01:59:36.669Z,976.50
2023-04-25T02:00:36.688Z,983.30
2023-04-25T02:01:36.725Z,1009.70
2023-04-25T02:02:36.856Z,976.90
2023-04-25T02:03:36.788Z,997.30
2023-04-25T02:04:36.707Z,961.50
2023-04-25T02:05:36.610Z,994.30
2023-04-25T02:06:36.624Z,955.20
2023-04-25T02:07:36.621Z,939.40
2023-04-25T02:08:36.581Z,990.30
2023-04-25T02:09:36.567Z,953.20
2023-04-25T02:10:36.557Z,926.90
2023-04-25T02:11:36.548Z,921.90
2023-04-25T02:12:36.576Z,922.90
2023-04-25T02:13:36.519Z,731.10
2023-04-25T02:14:36.501Z,732.50
2023-04-25T02:15:36.530Z,717.50
2023-04-25T02:16:36.652Z,699.80
2023-04-25T02:17:36.489Z,698.90
2023-04-25T02:18:36.484Z,685.90
2023-04-25T02:19:36.455Z,698.90
2023-04-25T02:20:36.445Z,780.10
2023-04-25T02:21:36.446Z,796.70
2023-04-25T02:22:36.502Z,809.40
2023-04-25T02:23:36.405Z,818.60
2023-04-25T02:24:36.403Z,833.40
2023-04-25T02:25:36.386Z,843.70
2023-04-25T02:26:36.386Z,867.20
2023-04-25T02:27:36.397Z,872.50
2023-04-25T02:28:36.376Z,878.30
2023-04-25T02:29:36.336Z,893.30
2023-04-25T02:30:36.382Z,885.40
2023-04-25T02:31:36.363Z,881.10
2023-04-25T02:32:36.410Z,874.60
2023-04-25T02:33:36.298Z,842.30
2023-04-25T02:34:36.312Z,835.50
2023-04-25T02:35:36.294Z,836.80
2023-04-25T02:36:36.254Z,845.10
2023-04-25T02:37:36.285Z,866.70
2023-04-25T02:38:36.258Z,866.10
2023-04-25T02:39:36.224Z,866.50
2023-04-25T02:40:36.248Z,840.40
2023-04-25T02:41:36.206Z,830.70
2023-04-25T02:42:36.227Z,807.50
2023-04-25T02:43:36.190Z,806.90
2023-04-25T02:44:36.166Z,829.30
2023-04-25T02:45:36.220Z,827.20
2023-04-25T02:46:39.604Z,842.60
2023-04-25T02:47:36.195Z,835.40
2023-04-25T02:48:36.157Z,845.20
2023-04-25T02:49:36.140Z,826.80
2023-04-25T02:50:36.109Z,852.90
2023-04-25T02:51:36.115Z,854.60
2023-04-25T02:52:36.124Z,851.10
2023-04-25T02:53:36.089Z,841.70
2023-04-25T02:54:36.063Z,835.60
2023-04-25T02:55:36.046Z,836.10
2023-04-25T02:56:36.043Z,842.50
2023-04-25T02:57:36.046Z,825.00
2023-04-25T02:58:36.035Z,818.60
2023-04-25T02:59:35.991Z,836.40
2023-04-25T03:00:36.056Z,825.80
2023-04-25T03:01:35.989Z,839.90
2023-04-25T03:02:36.067Z,833.90
2023-04-25T03:03:36.054Z,835.70
2023-04-25T03:04:35.982Z,837.30
2023-04-25T03:05:35.941Z,834.30
2023-04-25T03:06:35.933Z,829.90
2023-04-25T03:07:35.961Z,831.70
2023-04-25T03:08:35.935Z,840.60
2023-04-25T03:09:35.942Z,835.60
2023-04-25T03:10:35.885Z,832.20
2023-04-25T03:11:35.870Z,842.10
2023-04-25T03:12:35.889Z,836.50
2023-04-25T03:13:35.879Z,871.30
2023-04-25T03:14:35.840Z,820.20
2023-04-25T03:15:35.827Z,861.20
2023-04-25T03:16:35.836Z,835.10
2023-04-25T03:17:35.902Z,893.30
2023-04-25T03:18:35.790Z,836.10
2023-04-25T03:19:35.789Z,774.00
2023-04-25T03:20:35.787Z,820.00
2023-04-25T03:21:35.726Z,826.90
2023-04-25T03:22:35.782Z,854.60
2023-04-25T03:23:35.723Z,847.70
2023-04-25T03:24:35.718Z,856.00
2023-04-25T03:25:35.700Z,849.30
2023-04-25T03:26:35.705Z,851.20
2023-04-25T03:27:35.725Z,851.40
2023-04-25T03:28:35.688Z,841.80
2023-04-25T03:29:35.659Z,776.00
2023-04-25T03:30:35.684Z,771.60
2023-04-25T03:31:35.678Z,762.10
2023-04-25T03:32:35.748Z,752.10
2023-04-25T03:33:35.607Z,737.70
2023-04-25T03:34:35.627Z,719.30
2023-04-25T03:35:35.604Z,727.40
2023-04-25T03:36:35.596Z,742.60
2023-04-25T03:37:35.606Z,701.60
2023-04-25T03:38:35.567Z,685.00
2023-04-25T03:39:35.553Z,676.70
2023-04-25T03:40:35.556Z,674.00
2023-04-25T03:41:35.526Z,667.20
2023-04-25T03:42:35.554Z,642.30
2023-04-25T03:43:35.534Z,630.10
2023-04-25T03:44:35.485Z,626.20
2023-04-25T03:45:35.508Z,627.40
2023-04-25T03:46:35.485Z,630.40
2023-04-25T03:47:35.475Z,643.30
2023-04-25T03:48:35.474Z,638.60
2023-04-25T03:49:35.433Z,656.50
2023-04-25T03:50:35.424Z,669.00
2023-04-25T03:51:35.430Z,677.80
2023-04-25T03:52:35.471Z,726.30
2023-04-25T03:53:35.446Z,678.10
2023-04-25T03:54:35.397Z,704.20
2023-04-25T03:55:35.364Z,697.70
2023-04-25T03:56:35.386Z,705.30
2023-04-25T03:57:35.351Z,715.60
2023-04-25T03:58:35.384Z,716.10
2023-04-25T03:59:35.346Z,738.40
2023-04-25T04:00:35.312Z,747.30
2023-04-25T04:01:35.311Z,732.50
2023-04-25T04:02:35.425Z,708.30
2023-04-25T04:03:35.567Z,745.00
2023-04-25T04:04:35.464Z,777.30
2023-04-25T04:05:35.269Z,778.40
2023-04-25T04:06:35.255Z,742.80
2023-04-25T04:07:35.242Z,707.70
2023-04-25T04:08:35.262Z,713.20
2023-04-25T04:09:35.213Z,734.20
2023-04-25T04:10:35.201Z,755.20
2023-04-25T04:11:35.182Z,765.00
2023-04-25T04:12:35.182Z,771.40
2023-04-25T04:13:35.200Z,768.20
2023-04-25T04:14:35.164Z,778.30
2023-04-25T04:15:35.227Z,781.50
2023-04-25T04:16:35.278Z,792.10
2023-04-25T04:17:35.149Z,789.70
2023-04-25T04:18:35.180Z,792.50
2023-04-25T04:19:35.085Z,789.80
2023-04-25T04:20:35.087Z,785.90
2023-04-25T04:21:35.075Z,780.50
2023-04-25T04:22:35.071Z,767.10
2023-04-25T04:23:35.202Z,768.60
2023-04-25T04:24:35.060Z,767.30
2023-04-25T04:25:35.027Z,753.60
2023-04-25T04:26:35.030Z,747.10
2023-04-25T04:27:35.021Z,752.70
2023-04-25T04:28:35.052Z,753.30
2023-04-25T04:29:34.989Z,751.20
2023-04-25T04:30:35.018Z,759.00
2023-04-25T04:31:35.117Z,786.20
2023-04-25T04:32:34.978Z,786.40
2023-04-25T04:33:34.984Z,782.50
2023-04-25T04:34:34.935Z,808.70
2023-04-25T04:35:34.924Z,791.40
2023-04-25T04:36:34.924Z,852.50
2023-04-25T04:37:34.886Z,828.30
2023-04-25T04:38:34.932Z,794.40
2023-04-25T04:39:34.884Z,778.80
2023-04-25T04:40:34.857Z,797.80
2023-04-25T04:41:34.855Z,784.30
2023-04-25T04:42:34.833Z,768.10
2023-04-25T04:43:34.892Z,750.60
2023-04-25T04:44:34.873Z,614.80
2023-04-25T04:45:34.827Z,620.70
2023-04-25T04:46:34.920Z,637.20
2023-04-25T04:47:34.838Z,658.30
2023-04-25T04:48:34.828Z,650.20
2023-04-25T04:49:34.775Z,623.60
2023-04-25T04:50:34.777Z,618.30
2023-04-25T04:51:34.732Z,613.50
2023-04-25T04:52:34.743Z,598.40
2023-04-25T04:53:34.767Z,590.00
2023-04-25T04:54:34.720Z,592.90
2023-04-25T04:55:34.705Z,594.60
2023-04-25T04:56:34.706Z,563.60
2023-04-25T04:57:34.684Z,543.80
2023-04-25T04:58:34.739Z,527.20
2023-04-25T04:59:34.646Z,299.10
2023-04-25T05:00:34.675Z,113.40
2023-04-25T05:01:34.624Z,136.60
2023-04-25T05:02:34.832Z,172.00
2023-04-25T05:03:34.864Z,224.80
2023-04-25T05:04:34.741Z,266.40
2023-04-25T05:05:34.609Z,281.20
2023-04-25T05:06:34.588Z,357.10
2023-04-25T05:07:34.575Z,310.90
2023-04-25T05:08:34.603Z,375.70
2023-04-25T05:09:34.560Z,329.00
2023-04-25T05:10:34.513Z,372.10
2023-04-25T05:11:34.513Z,298.00
2023-04-25T05:12:35.859Z,386.30
2023-04-25T05:13:34.548Z,286.60
2023-04-25T05:14:34.515Z,248.70
2023-04-25T05:15:34.514Z,200.40
2023-04-25T05:16:34.523Z,182.80
2023-04-25T05:17:34.686Z,334.50
2023-04-25T05:18:34.494Z,268.30
2023-04-25T05:19:34.443Z,232.30
2023-04-25T05:20:34.421Z,336.40
2023-04-25T05:21:34.403Z,328.90
2023-04-25T05:22:34.383Z,497.70
2023-04-25T05:23:34.444Z,209.40
2023-04-25T05:24:34.392Z,253.30
2023-04-25T05:25:34.362Z,212.10
2023-04-25T05:26:34.392Z,450.80
2023-04-25T05:27:34.350Z,302.00
2023-04-25T05:28:34.369Z,517.90
2023-04-25T05:29:34.324Z,100.70
2023-04-25T05:30:34.321Z,179.00
2023-04-25T05:31:35.232Z,78.30
2023-04-25T05:32:34.342Z,110.40
2023-04-25T05:33:34.315Z,77.40
2023-04-25T05:34:34.257Z,105.90
2023-04-25T05:35:34.294Z,184.50
2023-04-25T05:36:34.272Z,72.70
2023-04-25T05:37:34.225Z,137.20
2023-04-25T05:38:35.120Z,71.10
2023-04-25T05:39:34.180Z,63.00
2023-04-25T05:40:34.188Z,315.80
2023-04-25T05:41:34.183Z,368.20
2023-04-25T05:42:34.185Z,58.50
2023-04-25T05:43:34.248Z,89.20
2023-04-25T05:44:34.200Z,87.70
2023-04-25T05:45:34.175Z,69.30
2023-04-25T05:46:34.269Z,122.20
2023-04-25T05:47:34.378Z,483.70
2023-04-25T05:48:34.157Z,147.50
2023-04-25T05:49:34.105Z,32.00
2023-04-25T05:50:34.083Z,34.50
2023-04-25T05:51:34.076Z,195.80
2023-04-25T05:52:34.058Z,33.20
2023-04-25T05:53:34.097Z,348.50
2023-04-25T05:54:34.069Z,48.80
2023-04-25T05:55:34.051Z,391.20
2023-04-25T05:56:34.044Z,35.50
2023-04-25T05:57:33.998Z,34.30
2023-04-25T05:58:34.057Z,100.80
2023-04-25T05:59:33.958Z,32.80
2023-04-25T06:00:33.983Z,35.50
2023-04-25T06:01:33.982Z,48.60
2023-04-25T06:02:34.092Z,24.80
2023-04-25T06:03:34.132Z,28.30
2023-04-25T06:04:34.373Z,48.80
2023-04-25T06:05:34.257Z,37.60
2023-04-25T06:06:33.884Z,52.20
2023-04-25T06:07:33.881Z,52.40
2023-04-25T06:08:33.960Z,79.40
2023-04-25T06:09:33.881Z,56.80
2023-04-25T06:10:33.863Z,39.20
2023-04-25T06:11:33.835Z,41.40
2023-04-25T06:12:33.862Z,30.70
2023-04-25T06:13:33.879Z,36.10
2023-04-25T06:14:33.820Z,26.50
2023-04-25T06:15:33.824Z,25.80
2023-04-25T06:16:33.806Z,24.60
2023-04-25T06:17:33.795Z,28.40
2023-04-25T06:18:33.774Z,30.20
2023-04-25T06:19:33.787Z,637.00
2023-04-25T06:20:33.764Z,128.50
2023-04-25T06:21:33.781Z,49.20
2023-04-25T06:22:33.735Z,400.10
2023-04-25T06:23:33.718Z,17.20
2023-04-25T06:24:33.742Z,71.80
2023-04-25T06:25:33.692Z,20.50
2023-04-25T06:26:33.675Z,187.20
2023-04-25T06:27:33.663Z,63.40
2023-04-25T06:28:33.687Z,205.50
2023-04-25T06:29:33.659Z,17.10
2023-04-25T06:30:33.622Z,257.90
2023-04-25T06:31:33.713Z,15.30
2023-04-25T06:32:33.649Z,356.40
2023-04-25T06:33:33.618Z,19.30
2023-04-25T06:34:33.577Z,20.90
2023-04-25T06:35:33.590Z,100.60
2023-04-25T06:36:33.568Z,118.80
2023-04-25T06:37:33.577Z,68.20
2023-04-25T06:38:33.569Z,28.00
2023-04-25T06:39:33.580Z,25.30
2023-04-25T06:40:33.520Z,27.90
2023-04-25T06:41:33.498Z,72.20
2023-04-25T06:42:33.501Z,190.80
2023-04-25T06:43:33.490Z,135.40
2023-04-25T06:44:33.540Z,108.60
2023-04-25T06:45:33.458Z,46.00
2023-04-25T06:46:33.503Z,17.10
2023-04-25T06:47:33.471Z,16.40
2023-04-25T06:48:33.481Z,129.50
2023-04-25T06:49:33.420Z,152.20
2023-04-25T06:50:33.405Z,162.00
2023-04-25T06:51:33.389Z,15.80
2023-04-25T06:52:33.415Z,35.10
2023-04-25T06:53:33.423Z,20.60
2023-04-25T06:54:33.374Z,78.30
2023-04-25T06:55:33.392Z,67.00
2023-04-25T06:56:33.414Z,20.40
2023-04-25T06:57:33.342Z,16.40
2023-04-25T06:58:33.345Z,15.80
2023-04-25T06:59:33.312Z,26.00
2023-04-25T07:00:33.301Z,160.10
2023-04-25T07:01:33.262Z,194.20
2023-04-25T07:02:33.411Z,24.00
2023-04-25T07:03:33.417Z,138.60
2023-04-25T07:04:33.367Z,164.30
2023-04-25T07:05:33.262Z,41.00
2023-04-25T07:06:33.223Z,290.70
2023-04-25T07:07:33.211Z,20.20
2023-04-25T07:08:33.207Z,224.20
2023-04-25T07:09:33.264Z,126.80
2023-04-25T07:10:33.210Z,134.90
2023-04-25T07:11:33.163Z,268.00
2023-04-25T07:12:33.157Z,253.70
2023-04-25T07:13:33.144Z,234.00
2023-04-25T07:14:33.192Z,310.00
2023-04-25T07:15:33.129Z,280.80
2023-04-25T07:16:33.140Z,76.50
2023-04-25T07:17:33.181Z,84.60
2023-04-25T07:18:33.095Z,27.20
2023-04-25T07:19:33.128Z,29.60
2023-04-25T07:20:33.056Z,32.90
2023-04-25T07:21:33.083Z,31.70
2023-04-25T07:22:33.050Z,45.40
2023-04-25T07:23:33.030Z,41.30
2023-04-25T07:24:33.056Z,30.60
2023-04-25T07:25:33.105Z,24.30
2023-04-25T07:26:33.021Z,26.50
2023-04-25T07:27:33.005Z,23.80
2023-04-25T07:28:32.964Z,28.80
2023-04-25T07:29:33.012Z,25.80
2023-04-25T07:30:32.939Z,34.50
2023-04-25T07:31:32.998Z,47.20
2023-04-25T07:32:32.958Z,31.00
2023-04-25T07:33:32.975Z,32.80
2023-04-25T07:34:32.984Z,67.70
2023-04-25T07:35:32.966Z,66.70
2023-04-25T07:36:32.875Z,93.70
2023-04-25T07:37:32.902Z,40.90
2023-04-25T07:38:32.903Z,45.10
2023-04-25T07:39:32.894Z,71.20
2023-04-25T07:40:32.833Z,137.10
2023-04-25T07:41:32.835Z,48.00
2023-04-25T07:42:32.833Z,53.30
2023-04-25T07:43:32.812Z,40.30
2023-04-25T07:44:32.834Z,68.40
2023-04-25T07:45:32.806Z,68.20
2023-04-25T07:46:32.850Z,37.60
2023-04-25T07:47:32.830Z,233.90
2023-04-25T07:48:32.757Z,181.50
2023-04-25T07:49:32.812Z,65.90
2023-04-25T07:50:32.757Z,69.40
2023-04-25T07:51:32.753Z,42.40
2023-04-25T07:52:32.723Z,36.80
2023-04-25T07:53:32.960Z,18.20
2023-04-25T07:54:32.734Z,21.60
2023-04-25T07:55:32.671Z,13.90
2023-04-25T07:56:45.236Z,19.40
2023-04-25T07:57:33.646Z,20.60
2023-04-25T07:58:32.647Z,14.40
2023-04-25T07:59:32.659Z,22.90
2023-04-25T08:00:32.656Z,28.00
2023-04-25T08:01:32.600Z,49.80
2023-04-25T08:02:32.704Z,40.00
2023-04-25T08:03:32.881Z,25.70
2023-04-25T08:04:32.770Z,46.00
2023-04-25T08:05:32.759Z,75.00
2023-04-25T08:06:32.934Z,135.40
2023-04-25T08:07:32.565Z,250.10
2023-04-25T08:08:32.533Z,156.70
2023-04-25T08:09:32.552Z,29.40
2023-04-25T08:10:32.509Z,32.30
2023-04-25T08:11:32.504Z,43.90
2023-04-25T08:12:32.510Z,60.90
2023-04-25T08:13:32.466Z,70.10
2023-04-25T08:14:32.492Z,109.70
2023-04-25T08:15:32.478Z,247.00
2023-04-25T08:16:32.488Z,44.20
2023-04-25T08:17:32.450Z,55.60
2023-04-25T08:18:32.455Z,177.80
2023-04-25T08:19:32.472Z,157.30
2023-04-25T08:20:32.398Z,231.10
2023-04-25T08:21:32.456Z,77.60
2023-04-25T08:22:32.372Z,111.00
2023-04-25T08:23:32.356Z,50.80
2023-04-25T08:24:32.350Z,41.80
2023-04-25T08:25:32.402Z,56.90
2023-04-25T08:26:32.390Z,67.10
2023-04-25T08:27:32.316Z,70.80
2023-04-25T08:28:32.332Z,55.30
2023-04-25T08:29:32.426Z,48.20
2023-04-25T08:30:32.333Z,43.10
2023-04-25T08:31:32.318Z,94.70
2023-04-25T08:32:32.270Z,148.20
2023-04-25T08:33:32.271Z,218.90
2023-04-25T08:34:32.262Z,64.60
2023-04-25T08:35:32.263Z,38.10
2023-04-25T08:36:39.264Z,94.50
2023-04-25T08:37:33.194Z,33.90
2023-04-25T08:38:32.195Z,31.10
2023-04-25T08:39:32.171Z,37.50
2023-04-25T08:40:32.207Z,49.60
2023-04-25T08:41:32.147Z,55.50
2023-04-25T08:42:32.150Z,91.00
2023-04-25T08:43:32.144Z,62.00
2023-04-25T08:44:32.149Z,64.60
2023-04-25T08:45:32.263Z,27.10
2023-04-25T08:46:32.247Z,67.90
2023-04-25T08:47:32.158Z,31.10
2023-04-25T08:48:32.068Z,113.20
2023-04-25T08:49:32.080Z,76.40
2023-04-25T08:50:32.100Z,72.30
2023-04-25T08:51:32.036Z,62.70
2023-04-25T08:52:32.050Z,86.80
2023-04-25T08:53:31.997Z,75.60
2023-04-25T08:54:35.580Z,75.90
2023-04-25T08:55:32.029Z,124.70
2023-04-25T08:56:31.977Z,171.40
2023-04-25T08:57:31.955Z,130.20
2023-04-25T08:58:31.959Z,72.60
2023-04-25T08:59:32.060Z,54.60
2023-04-25T09:00:32.063Z,33.50
2023-04-25T09:01:31.990Z,95.20
2023-04-25T09:02:31.953Z,65.50
2023-04-25T09:03:32.040Z,48.00
2023-04-25T09:04:31.877Z,69.80
2023-04-25T09:05:31.914Z,46.40
2023-04-25T09:06:31.883Z,136.60
2023-04-25T09:07:31.848Z,116.90
2023-04-25T09:08:31.840Z,103.40
2023-04-25T09:09:31.874Z,69.00
2023-04-25T09:11:31.825Z,63.60
2023-04-25T09:12:31.787Z,33.40
2023-04-25T09:13:31.779Z,232.80
2023-04-25T09:14:31.762Z,118.80
2023-04-25T09:15:31.855Z,245.10
2023-04-25T09:16:32.718Z,196.30
2023-04-25T09:17:31.765Z,328.40
2023-04-25T09:18:31.718Z,61.10
2023-04-25T09:19:40.398Z,69.30
2023-04-25T09:20:35.210Z,35.30
2023-04-25T09:21:31.676Z,22.50
2023-04-25T09:22:31.665Z,46.70
2023-04-25T09:23:31.770Z,22.40
2023-04-25T09:24:31.658Z,47.10
2023-04-25T09:25:31.713Z,26.30
2023-04-25T09:26:31.787Z,51.70
2023-04-25T09:27:31.696Z,17.10
2023-04-25T09:28:31.634Z,23.40
2023-04-25T09:29:31.631Z,66.00
2023-04-25T09:30:31.683Z,147.40
2023-04-25T09:31:31.602Z,48.50
2023-04-25T09:32:31.635Z,198.70
2023-04-25T09:33:31.556Z,82.40
2023-04-25T09:34:31.533Z,82.90
2023-04-25T09:35:31.662Z,54.40
2023-04-25T09:36:31.551Z,97.90
2023-04-25T09:37:31.506Z,76.00
2023-04-25T09:38:31.492Z,88.70
2023-04-25T09:39:31.486Z,74.40
2023-04-25T09:40:31.516Z,94.10
2023-04-25T09:41:31.481Z,153.40
2023-04-25T09:42:31.469Z,181.20
2023-04-25T09:43:31.454Z,209.10
2023-04-25T09:44:31.448Z,74.30
2023-04-25T09:45:31.466Z,72.90
2023-04-25T09:46:31.529Z,48.30
2023-04-25T09:47:31.487Z,112.30
2023-04-25T09:48:31.448Z,28.90
2023-04-25T09:49:31.395Z,129.70
2023-04-25T09:50:31.408Z,50.20
2023-04-25T09:51:31.350Z,75.80
2023-04-25T09:52:31.349Z,42.10
2023-04-25T09:53:31.335Z,49.80
2023-04-25T09:54:31.306Z,82.20
2023-04-25T09:55:31.489Z,266.10
2023-04-25T09:56:31.298Z,65.70
2023-04-25T09:57:31.289Z,46.60
2023-04-25T09:58:33.108Z,118.30
2023-04-25T09:59:31.267Z,45.40
2023-04-25T10:00:31.283Z,110.30
2023-04-25T10:01:31.303Z,54.20
2023-04-25T10:02:31.325Z,127.50
2023-04-25T10:03:31.360Z,270.70
2023-04-25T10:04:33.460Z,35.10
2023-04-25T10:05:31.250Z,80.50
2023-04-25T10:06:31.218Z,122.90
2023-04-25T10:07:31.169Z,46.00
2023-04-25T10:08:31.201Z,51.60
2023-04-25T10:09:31.142Z,78.20
2023-04-25T10:10:32.126Z,136.80
2023-04-25T10:11:31.141Z,51.30
2023-04-25T10:12:31.123Z,87.90
2023-04-25T10:13:31.117Z,50.80
2023-04-25T10:14:31.106Z,117.10
2023-04-25T10:15:31.150Z,46.10
2023-04-25T10:16:31.254Z,58.00
2023-04-25T10:17:31.123Z,208.30
2023-04-25T10:18:31.050Z,149.80
2023-04-25T10:19:31.062Z,257.70
2023-04-25T10:20:31.115Z,408.60
2023-04-25T10:21:31.015Z,106.60
2023-04-25T10:22:30.981Z,247.00
2023-04-25T10:23:31.001Z,314.40
2023-04-25T10:24:31.006Z,165.40
2023-04-25T10:25:30.998Z,91.20
2023-04-25T10:26:31.387Z,248.30
2023-04-25T10:27:30.943Z,410.00
2023-04-25T10:28:30.958Z,135.00
2023-04-25T10:29:30.972Z,84.70
2023-04-25T10:30:31.030Z,31.20
2023-04-25T10:31:31.028Z,163.80
2023-04-25T10:32:31.321Z,104.50
2023-04-25T10:33:30.881Z,120.60
2023-04-25T10:34:30.869Z,220.60
2023-04-25T10:35:30.932Z,259.40
2023-04-25T10:36:30.874Z,263.90
2023-04-25T10:37:30.861Z,201.80
2023-04-25T10:38:30.830Z,213.60
2023-04-25T10:39:30.815Z,182.10
2023-04-25T10:40:30.900Z,52.10
2023-04-25T10:41:30.780Z,389.60
2023-04-25T10:42:30.782Z,166.40
2023-04-25T10:43:30.787Z,146.90
2023-04-25T10:44:30.789Z,205.60
2023-04-25T10:45:30.786Z,94.30
2023-04-25T10:46:30.810Z,398.80
2023-04-25T10:47:30.765Z,316.30
2023-04-25T10:48:30.719Z,235.20
2023-04-25T10:49:30.703Z,219.70
2023-04-25T10:50:30.742Z,263.50
2023-04-25T10:51:37.187Z,182.00
2023-04-25T10:52:31.686Z,173.50
2023-04-25T10:53:30.676Z,153.60
2023-04-25T10:54:30.657Z,171.00
2023-04-25T10:55:30.700Z,123.50
2023-04-25T10:56:30.638Z,144.70
2023-04-25T10:57:30.659Z,44.80
2023-04-25T10:58:30.632Z,98.40
2023-04-25T10:59:30.582Z,24.60
2023-04-25T11:00:38.321Z,67.20
2023-04-25T11:01:31.649Z,24.50
2023-04-25T11:02:30.694Z,26.20
2023-04-25T11:03:30.703Z,25.10
2023-04-25T11:04:30.797Z,39.20
2023-04-25T11:05:30.543Z,25.10
2023-04-25T11:06:30.565Z,61.70
2023-04-25T11:07:30.519Z,37.00
2023-04-25T11:08:30.501Z,58.20
2023-04-25T11:09:30.485Z,91.60
2023-04-25T11:10:30.477Z,58.00
2023-04-25T11:11:30.528Z,103.90
2023-04-25T11:12:30.424Z,163.50
2023-04-25T11:13:30.436Z,118.70
2023-04-25T11:14:30.416Z,117.50
2023-04-25T11:15:30.402Z,207.80
2023-04-25T11:16:30.490Z,223.60
2023-04-25T11:17:30.508Z,94.30
2023-04-25T11:18:30.459Z,122.90
2023-04-25T11:19:30.371Z,63.80
2023-04-25T11:20:30.385Z,105.10
2023-04-25T11:21:30.405Z,155.80
2023-04-25T11:22:30.334Z,300.90
2023-04-25T11:23:30.333Z,87.90
2023-04-25T11:24:30.309Z,136.70
2023-04-25T11:25:30.310Z,127.70
2023-04-25T11:26:30.332Z,95.60
2023-04-25T11:27:30.283Z,95.60
2023-04-25T11:28:30.263Z,273.60
2023-04-25T11:29:30.279Z,195.20
2023-04-25T11:30:30.253Z,75.90
2023-04-25T11:31:30.323Z,225.80
2023-04-25T11:32:30.307Z,255.40
2023-04-25T11:33:30.225Z,152.10
2023-04-25T11:34:30.226Z,225.20
2023-04-25T11:35:30.195Z,298.00
2023-04-25T11:36:30.220Z,446.00
2023-04-25T11:37:30.171Z,403.80
2023-04-25T11:38:30.188Z,515.90
2023-04-25T11:39:30.170Z,549.40
2023-04-25T11:40:30.132Z,543.00
2023-04-25T11:41:30.152Z,492.80
2023-04-25T11:42:30.103Z,482.20
2023-04-25T11:43:30.269Z,544.10
2023-04-25T11:44:30.105Z,388.70
2023-04-25T11:45:30.073Z,353.90
2023-04-25T11:46:30.177Z,287.60
2023-04-25T11:47:30.153Z,320.10
2023-04-25T11:48:30.075Z,317.50
2023-04-25T11:49:30.457Z,406.70
2023-04-25T11:50:30.008Z,387.10
2023-04-25T11:51:30.089Z,377.90
2023-04-25T11:52:30.015Z,568.30
2023-04-25T11:53:29.994Z,301.20
2023-04-25T11:54:29.965Z,267.30
2023-04-25T11:55:30.026Z,294.40
2023-04-25T11:56:29.969Z,363.20
2023-04-25T11:57:29.963Z,437.20
2023-04-25T11:58:29.945Z,374.40
2023-04-25T11:59:29.939Z,309.00
2023-04-25T12:00:29.920Z,305.80
2023-04-25T12:01:31.742Z,278.30
2023-04-25T12:02:31.040Z,332.30
2023-04-25T12:03:30.015Z,266.80
2023-04-25T12:04:30.134Z,383.90
2023-04-25T12:05:33.345Z,269.10
2023-04-25T12:06:29.899Z,193.40
2023-04-25T12:07:29.846Z,292.30
2023-04-25T12:08:29.812Z,276.40
2023-04-25T12:09:29.811Z,225.40
2023-04-25T12:10:29.799Z,143.40
2023-04-25T12:11:29.801Z,124.90
2023-04-25T12:12:29.804Z,197.70
2023-04-25T12:13:29.794Z,195.10
2023-04-25T12:14:29.775Z,168.80
2023-04-25T12:15:29.742Z,101.60
2023-04-25T12:16:29.752Z,446.50
2023-04-25T12:17:29.810Z,502.80
2023-04-25T12:18:29.691Z,563.40
2023-04-25T12:19:29.693Z,597.10
2023-04-25T12:20:29.697Z,636.20
2023-04-25T12:21:29.674Z,608.20
2023-04-25T12:22:29.730Z,682.60
2023-04-25T12:23:29.702Z,704.90
2023-04-25T12:24:29.649Z,653.40
2023-04-25T12:25:29.610Z,660.20
2023-04-25T12:26:29.614Z,748.30
2023-04-25T12:27:29.801Z,855.50
2023-04-25T12:28:29.581Z,732.60
2023-04-25T12:29:34.557Z,740.60
2023-04-25T12:30:30.581Z,690.40
2023-04-25T12:31:29.580Z,567.00
2023-04-25T12:32:29.648Z,697.60
2023-04-25T12:33:29.542Z,709.60
2023-04-25T12:34:29.510Z,701.10
2023-04-25T12:35:29.501Z,685.90